createdAt,value
2023-02-23T00:02:27.554Z,23.89
2023-02-23T00:04:54.223Z,23.72
2023-02-23T00:07:20.843Z,24.28
2023-02-23T00:09:47.453Z,23.77
2023-02-23T00:12:14.066Z,24.83
2023-02-23T00:14:51.688Z,24.22
2023-02-23T00:17:18.350Z,24.76
2023-02-23T00:19:47.828Z,23.85
2023-02-23T00:22:14.467Z,24.35
2023-02-23T00:24:43.352Z,23.83
2023-02-23T00:27:10.528Z,24.42
2023-02-23T00:29:37.150Z,24.11
2023-02-23T00:32:04.353Z,23.92
2023-02-23T00:34:31.044Z,23.29
2023-02-23T00:36:57.650Z,23.79
2023-02-23T00:39:24.426Z,23.58
2023-02-23T00:41:52.562Z,23.97
2023-02-23T00:44:21.121Z,23.61
2023-02-23T00:46:47.992Z,23.91
2023-02-23T00:49:14.689Z,23.94
2023-02-23T00:51:41.860Z,23.57
2023-02-23T00:54:12.012Z,24.09
2023-02-23T00:56:40.083Z,23.53
2023-02-23T00:59:07.869Z,23.40
2023-02-23T01:01:36.413Z,23.94
2023-02-23T01:04:03.610Z,23.91
2023-02-23T01:06:30.409Z,24.07
2023-02-23T01:08:57.082Z,24.64
2023-02-23T01:11:28.467Z,24.46
2023-02-23T01:13:58.219Z,24.51
2023-02-23T01:16:29.218Z,24.06
2023-02-23T01:18:59.184Z,23.78
2023-02-23T01:21:29.800Z,24.34
2023-02-23T01:23:57.151Z,24.61
2023-02-23T01:26:32.906Z,23.75
2023-02-23T01:29:02.416Z,23.16
2023-02-23T01:31:30.252Z,23.80
2023-02-23T01:33:59.902Z,24.11
2023-02-23T01:36:28.367Z,24.30
2023-02-23T01:38:55.977Z,25.05
2023-02-23T01:41:24.219Z,24.78
2023-02-23T01:44:07.819Z,24.42
2023-02-23T01:46:40.356Z,24.74
2023-02-23T01:49:25.154Z,24.62
2023-02-23T01:52:13.369Z,24.64
2023-02-23T01:54:50.203Z,24.37
2023-02-23T01:57:20.223Z,24.39
2023-02-23T01:59:49.963Z,23.97
2023-02-23T02:02:20.793Z,24.68
2023-02-23T02:04:48.136Z,24.25
2023-02-23T02:07:29.786Z,23.96
2023-02-23T02:09:58.982Z,24.46
2023-02-23T02:12:25.669Z,24.49
2023-02-23T02:14:53.403Z,24.14
2023-02-23T02:17:38.971Z,24.17
2023-02-23T02:20:42.086Z,24.22
2023-02-23T02:23:23.763Z,24.26
2023-02-23T02:26:08.898Z,25.09
2023-02-23T02:29:00.273Z,24.60
2023-02-23T02:31:35.798Z,24.45
2023-02-23T02:34:14.264Z,24.40
2023-02-23T02:37:28.774Z,24.56
2023-02-23T02:40:22.086Z,24.03
2023-02-23T02:43:06.321Z,23.96
2023-02-23T02:46:08.095Z,23.62
2023-02-23T02:48:57.661Z,23.52
2023-02-23T02:51:31.400Z,23.14
2023-02-23T02:54:19.257Z,23.69
2023-02-23T02:56:48.808Z,23.19
2023-02-23T02:59:19.641Z,22.82
2023-02-23T03:01:46.337Z,23.33
2023-02-23T03:04:25.325Z,23.14
2023-02-23T03:06:51.913Z,23.02
2023-02-23T03:09:33.517Z,23.42
2023-02-23T03:12:25.142Z,23.91
2023-02-23T03:14:58.978Z,23.70
2023-02-23T03:18:11.168Z,23.82
2023-02-23T03:20:54.338Z,24.36
2023-02-23T03:23:49.033Z,23.61
2023-02-23T03:26:19.653Z,23.41
2023-02-23T03:29:11.553Z,23.55
2023-02-23T03:31:58.395Z,23.48
2023-02-23T03:34:24.965Z,23.72
2023-02-23T03:37:03.808Z,23.55
2023-02-23T03:39:43.467Z,23.50
2023-02-23T03:42:17.782Z,23.70
2023-02-23T03:44:48.801Z,24.33
2023-02-23T03:47:21.388Z,24.12
2023-02-23T03:49:50.949Z,24.15
2023-02-23T03:52:26.791Z,23.92
2023-02-23T03:55:04.795Z,24.11
2023-02-23T03:57:37.449Z,23.85
2023-02-23T04:00:11.864Z,24.05
2023-02-23T04:02:42.919Z,24.29
2023-02-23T04:05:16.767Z,23.40
2023-02-23T04:07:49.203Z,24.06
2023-02-23T04:10:16.234Z,24.24
2023-02-23T04:12:58.048Z,23.68
2023-02-23T04:15:34.018Z,24.51
2023-02-23T04:18:01.016Z,23.73
2023-02-23T04:20:27.907Z,23.46
2023-02-23T04:22:54.630Z,23.48
2023-02-23T04:25:21.367Z,22.89
2023-02-23T04:27:48.509Z,23.23
2023-02-23T04:30:15.341Z,23.54
2023-02-23T04:32:42.238Z,23.73
2023-02-23T04:35:10.132Z,23.58
2023-02-23T04:37:37.904Z,24.60
2023-02-23T04:40:06.300Z,23.31
2023-02-23T04:42:32.980Z,24.09
2023-02-23T04:44:59.685Z,23.60
2023-02-23T04:47:26.492Z,23.37
2023-02-23T04:49:53.401Z,23.88
2023-02-23T04:52:20.075Z,23.89
2023-02-23T04:54:46.706Z,23.51
2023-02-23T04:57:13.334Z,23.40
2023-02-23T04:59:40.331Z,23.69
2023-02-23T05:02:07.342Z,23.66
2023-02-23T05:04:34.247Z,23.59
2023-02-23T05:07:01.568Z,23.97
2023-02-23T05:09:28.171Z,23.83
2023-02-23T05:11:54.866Z,24.62
2023-02-23T05:14:22.529Z,24.62
2023-02-23T05:16:49.188Z,23.61
2023-02-23T05:19:16.010Z,23.41
2023-02-23T05:21:42.636Z,23.53
2023-02-23T05:24:09.274Z,23.09
2023-02-23T05:26:35.980Z,22.80
2023-02-23T05:29:03.508Z,23.46
2023-02-23T05:31:30.227Z,22.68
2023-02-23T05:33:56.972Z,22.54
2023-02-23T05:36:23.621Z,22.87
2023-02-23T05:38:50.262Z,23.02
2023-02-23T05:41:20.673Z,23.02
2023-02-23T05:43:50.550Z,22.98
2023-02-23T05:46:21.547Z,21.64
2023-02-23T05:48:48.434Z,22.31
2023-02-23T05:51:17.125Z,22.36
2023-02-23T05:53:45.010Z,22.89
2023-02-23T05:56:17.625Z,23.06
2023-02-23T05:58:44.468Z,23.24
2023-02-23T06:01:11.207Z,23.22
2023-02-23T06:03:38.050Z,23.39
2023-02-23T06:06:05.192Z,24.11
2023-02-23T06:08:31.945Z,24.11
2023-02-23T06:10:58.730Z,24.52
2023-02-23T06:13:25.560Z,25.61
2023-02-23T06:15:52.550Z,25.39
2023-02-23T06:18:19.271Z,26.41
2023-02-23T06:20:46.201Z,26.08
2023-02-23T06:23:13.217Z,25.40
2023-02-23T06:25:39.867Z,25.65
2023-02-23T06:28:06.516Z,26.80
2023-02-23T06:30:33.155Z,25.12
2023-02-23T06:32:59.916Z,24.50
2023-02-23T06:35:26.634Z,23.88
2023-02-23T06:37:53.527Z,23.44
2023-02-23T06:40:21.324Z,25.33
2023-02-23T06:42:50.492Z,29.27
2023-02-23T06:45:18.038Z,34.49
2023-02-23T06:47:45.446Z,30.60
2023-02-23T06:50:12.221Z,30.11
2023-02-23T06:52:38.892Z,28.33
2023-02-23T06:55:06.478Z,26.93
2023-02-23T06:57:33.103Z,24.78
2023-02-23T06:59:59.876Z,23.83
2023-02-23T07:02:26.477Z,24.87
2023-02-23T07:04:53.157Z,23.70
2023-02-23T07:07:19.792Z,22.45
2023-02-23T07:09:46.415Z,21.67
2023-02-23T07:12:13.026Z,21.69
2023-02-23T07:14:39.922Z,21.79
2023-02-23T07:17:06.597Z,21.60
2023-02-23T07:19:33.234Z,20.83
2023-02-23T07:21:59.891Z,21.22
2023-02-23T07:24:26.519Z,20.97
2023-02-23T07:26:53.158Z,20.59
2023-02-23T07:29:19.803Z,20.56
2023-02-23T07:31:46.669Z,19.91
2023-02-23T07:34:13.451Z,19.96
2023-02-23T07:36:40.159Z,20.02
2023-02-23T07:39:07.079Z,19.90
2023-02-23T07:41:33.784Z,20.01
2023-02-23T07:44:00.714Z,20.89
2023-02-23T07:46:27.405Z,21.96
2023-02-23T07:48:54.153Z,23.30
2023-02-23T07:51:21.279Z,23.80
2023-02-23T07:53:48.051Z,24.37
2023-02-23T07:56:14.853Z,23.95
2023-02-23T07:58:43.376Z,23.58
2023-02-23T08:01:11.788Z,23.44
2023-02-23T08:03:38.884Z,24.23
2023-02-23T08:06:06.565Z,23.49
2023-02-23T08:08:33.250Z,23.15
2023-02-23T08:11:04.897Z,22.98
2023-02-23T08:13:32.377Z,22.30
2023-02-23T08:15:59.661Z,21.98
2023-02-23T08:18:26.554Z,21.46
2023-02-23T08:21:04.232Z,20.89
2023-02-23T08:23:33.036Z,20.49
2023-02-23T08:26:01.160Z,20.02
2023-02-23T08:28:29.446Z,20.01
2023-02-23T08:30:56.269Z,21.34
2023-02-23T08:33:22.968Z,22.00
2023-02-23T08:35:51.320Z,22.29
2023-02-23T08:38:19.117Z,22.18
2023-02-23T08:40:46.586Z,21.78
2023-02-23T08:43:13.249Z,21.71
2023-02-23T08:45:40.004Z,21.75
2023-02-23T08:48:08.000Z,21.95
2023-02-23T08:50:35.235Z,22.35
2023-02-23T08:53:01.929Z,23.65
2023-02-23T08:55:28.605Z,24.25
2023-02-23T08:57:55.265Z,23.61
2023-02-23T09:00:22.391Z,22.96
2023-02-23T09:02:49.052Z,22.84
2023-02-23T09:05:17.770Z,24.06
2023-02-23T09:07:45.401Z,25.06
2023-02-23T09:10:14.757Z,24.48
2023-02-23T09:12:41.455Z,23.56
2023-02-23T09:15:09.172Z,23.72
2023-02-23T09:17:36.485Z,25.66
2023-02-23T09:20:04.588Z,25.69
2023-02-23T09:22:31.982Z,25.97
2023-02-23T09:24:58.646Z,25.80
2023-02-23T09:27:25.366Z,25.54
2023-02-23T09:29:54.161Z,26.25
2023-02-23T09:32:21.023Z,26.19
2023-02-23T09:34:47.760Z,25.89
2023-02-23T09:37:14.601Z,26.43
2023-02-23T09:39:41.265Z,26.19
2023-02-23T09:42:24.082Z,26.11
2023-02-23T09:45:16.542Z,26.05
2023-02-23T09:48:23.394Z,26.50
2023-02-23T09:50:56.302Z,25.96
2023-02-23T09:53:22.881Z,26.42
2023-02-23T09:55:53.542Z,25.57
2023-02-23T09:58:26.622Z,25.88
2023-02-23T10:01:11.329Z,27.09
2023-02-23T10:03:54.209Z,26.66
2023-02-23T10:06:22.034Z,27.12
2023-02-23T10:08:55.945Z,27.19
2023-02-23T10:11:38.435Z,28.40
2023-02-23T10:14:45.409Z,28.03
2023-02-23T10:17:22.118Z,27.43
2023-02-23T10:20:26.781Z,27.70
2023-02-23T10:22:57.982Z,27.24
2023-02-23T10:25:28.665Z,26.20
2023-02-23T10:27:58.535Z,26.69
2023-02-23T10:30:28.464Z,26.45
2023-02-23T10:33:13.572Z,26.72
2023-02-23T10:35:40.263Z,26.63
2023-02-23T10:38:18.436Z,25.92
2023-02-23T10:40:50.820Z,25.33
2023-02-23T10:43:17.482Z,24.98
2023-02-23T10:45:47.711Z,24.75
2023-02-23T10:48:19.363Z,24.37
2023-02-23T10:50:48.577Z,24.31
2023-02-23T10:53:28.129Z,24.90
2023-02-23T10:56:15.189Z,23.52
2023-02-23T10:58:51.911Z,22.72
2023-02-23T11:01:49.152Z,21.96
2023-02-23T11:04:32.417Z,23.30
2023-02-23T11:07:16.654Z,23.78
2023-02-23T11:09:47.481Z,24.45
2023-02-23T11:12:20.304Z,24.50
2023-02-23T11:14:50.937Z,24.96
2023-02-23T11:17:29.620Z,19.15
2023-02-23T11:20:02.553Z,17.24
2023-02-23T11:22:36.182Z,17.34
2023-02-23T11:25:15.685Z,16.69
2023-02-23T11:27:48.150Z,16.62
2023-02-23T11:30:16.375Z,17.63
2023-02-23T11:32:44.363Z,17.75
2023-02-23T11:35:13.511Z,16.88
2023-02-23T11:37:40.241Z,17.66
2023-02-23T11:40:21.258Z,22.82
2023-02-23T11:43:14.535Z,24.63
2023-02-23T11:45:51.970Z,24.86
2023-02-23T11:48:28.538Z,24.62
2023-02-23T11:50:57.120Z,25.03
2023-02-23T11:53:39.291Z,24.43
2023-02-23T11:56:07.516Z,24.75
2023-02-23T11:58:47.417Z,24.77
2023-02-23T12:01:17.493Z,24.15
2023-02-23T12:03:57.030Z,24.10
2023-02-23T12:06:39.778Z,25.40
2023-02-23T12:09:27.819Z,24.94
2023-02-23T12:12:06.994Z,24.51
2023-02-23T12:14:42.563Z,24.87
2023-02-23T12:17:19.828Z,25.12
2023-02-23T12:19:59.447Z,25.05
2023-02-23T12:22:37.988Z,26.35
2023-02-23T12:25:13.643Z,25.53
2023-02-23T12:28:07.640Z,25.25
2023-02-23T12:30:51.304Z,26.10
2023-02-23T12:33:39.302Z,26.02
2023-02-23T12:36:26.570Z,26.45
2023-02-23T12:39:00.695Z,25.62
2023-02-23T12:41:38.828Z,25.50
2023-02-23T12:44:30.080Z,26.02
2023-02-23T12:47:09.025Z,25.69
2023-02-23T12:49:39.220Z,26.23
2023-02-23T12:52:19.541Z,26.29
2023-02-23T12:54:46.560Z,25.93
2023-02-23T12:57:40.967Z,25.95
2023-02-23T13:00:36.876Z,26.66
2023-02-23T13:03:25.105Z,25.71
2023-02-23T13:06:02.625Z,25.10
2023-02-23T13:08:32.058Z,24.74
2023-02-23T13:11:16.905Z,24.95
2023-02-23T13:14:16.044Z,24.49
2023-02-23T13:16:50.929Z,25.07
2023-02-23T13:19:34.049Z,25.20
2023-02-23T13:22:24.361Z,24.73
2023-02-23T13:24:57.837Z,24.65
2023-02-23T13:27:50.317Z,24.74
2023-02-23T13:30:17.630Z,24.52
2023-02-23T13:32:46.843Z,24.52
2023-02-23T13:35:25.246Z,24.61
2023-02-23T13:37:59.274Z,23.92
2023-02-23T13:40:35.961Z,23.77
2023-02-23T13:43:20.562Z,24.31
2023-02-23T13:46:05.788Z,23.98
2023-02-23T13:48:56.710Z,23.11
2023-02-23T13:51:39.363Z,23.50
2023-02-23T13:54:16.637Z,22.95
2023-02-23T13:56:58.867Z,22.61
2023-02-23T13:59:37.351Z,22.45
2023-02-23T14:02:22.667Z,21.88
2023-02-23T14:04:50.671Z,22.69
2023-02-23T14:07:30.794Z,22.09
2023-02-23T14:10:06.039Z,22.18
2023-02-23T14:12:40.336Z,21.91
2023-02-23T14:15:25.629Z,21.85
2023-02-23T14:17:57.384Z,21.79
2023-02-23T14:20:54.248Z,20.41
2023-02-23T14:23:21.777Z,21.28
2023-02-23T14:25:48.416Z,21.47
2023-02-23T14:28:46.706Z,21.00
2023-02-23T14:31:13.450Z,20.08
2023-02-23T14:33:43.228Z,19.80
2023-02-23T14:36:22.218Z,19.25
2023-02-23T14:39:01.996Z,19.72
2023-02-23T14:41:59.198Z,19.96
2023-02-23T14:44:38.745Z,20.05
2023-02-23T14:47:42.401Z,20.15
2023-02-23T14:50:19.789Z,19.32
2023-02-23T14:52:47.748Z,19.48
2023-02-23T14:55:29.240Z,19.42
2023-02-23T14:57:57.384Z,18.93
2023-02-23T15:00:28.108Z,19.46
2023-02-23T15:03:10.298Z,19.16
2023-02-23T15:05:45.126Z,19.44
2023-02-23T15:08:20.900Z,19.01
2023-02-23T15:10:51.478Z,19.76
2023-02-23T15:13:31.202Z,19.66
2023-02-23T15:16:04.417Z,19.08
2023-02-23T15:18:38.270Z,18.32
2023-02-23T15:21:12.504Z,17.86
2023-02-23T15:23:40.009Z,18.01
2023-02-23T15:26:29.800Z,17.84
2023-02-23T15:29:22.823Z,18.21
2023-02-23T15:31:55.486Z,18.09
2023-02-23T15:34:25.820Z,18.34
2023-02-23T15:36:56.731Z,18.51
2023-02-23T15:39:48.700Z,18.91
2023-02-23T15:42:24.521Z,19.19
2023-02-23T15:45:05.568Z,19.34
2023-02-23T15:47:37.879Z,19.03
2023-02-23T15:50:18.096Z,19.35
2023-02-23T15:52:52.305Z,19.60
2023-02-23T15:55:25.693Z,18.94
2023-02-23T15:58:00.705Z,19.82
2023-02-23T16:00:39.206Z,19.53
2023-02-23T16:03:08.846Z,19.53
2023-02-23T16:05:41.915Z,19.83
2023-02-23T16:08:24.163Z,19.54
2023-02-23T16:11:00.932Z,20.04
2023-02-23T16:13:28.013Z,19.49
2023-02-23T16:15:56.395Z,19.96
2023-02-23T16:18:35.787Z,19.78
2023-02-23T16:21:04.759Z,19.96
2023-02-23T16:23:34.444Z,19.70
2023-02-23T16:26:12.407Z,19.73
2023-02-23T16:28:44.836Z,20.30
2023-02-23T16:31:13.089Z,20.13
2023-02-23T16:33:51.014Z,20.13
2023-02-23T16:36:24.068Z,20.84
2023-02-23T16:39:00.151Z,20.72
2023-02-23T16:41:33.867Z,21.33
2023-02-23T16:44:05.129Z,21.46
2023-02-23T16:46:53.702Z,20.69
2023-02-23T16:49:20.981Z,20.56
2023-02-23T16:51:47.791Z,19.86
2023-02-23T16:54:14.743Z,19.68
2023-02-23T16:56:41.818Z,19.75
2023-02-23T16:59:16.194Z,19.39
2023-02-23T17:01:43.493Z,19.66
2023-02-23T17:04:15.628Z,20.18
2023-02-23T17:06:43.439Z,20.48
2023-02-23T17:09:11.962Z,20.72
2023-02-23T17:11:41.197Z,20.82
2023-02-23T17:14:07.916Z,21.29
2023-02-23T17:16:34.664Z,20.72
2023-02-23T17:19:01.285Z,21.09
2023-02-23T17:21:27.951Z,20.30
2023-02-23T17:23:54.609Z,20.35
2023-02-23T17:26:23.962Z,18.82
2023-02-23T17:28:51.687Z,19.33
2023-02-23T17:31:20.946Z,18.84
2023-02-23T17:33:49.202Z,20.47
2023-02-23T17:36:17.761Z,20.15
2023-02-23T17:38:44.629Z,19.42
2023-02-23T17:41:19.466Z,19.82
2023-02-23T17:43:46.306Z,20.07
2023-02-23T17:46:13.847Z,19.37
2023-02-23T17:48:40.547Z,18.68
2023-02-23T17:51:09.779Z,19.26
2023-02-23T17:53:36.831Z,18.19
2023-02-23T17:56:04.108Z,18.16
2023-02-23T17:58:31.229Z,18.12
2023-02-23T18:01:01.273Z,18.12
2023-02-23T18:03:30.855Z,17.49
2023-02-23T18:06:09.616Z,17.41
2023-02-23T18:08:37.779Z,16.90
2023-02-23T18:11:04.468Z,18.02
2023-02-23T18:13:31.856Z,17.57
2023-02-23T18:16:03.053Z,17.46
2023-02-23T18:18:30.061Z,17.17
2023-02-23T18:20:59.653Z,17.21
2023-02-23T18:23:28.213Z,16.30
2023-02-23T18:25:55.004Z,16.64
2023-02-23T18:28:21.634Z,16.02
2023-02-23T18:30:48.280Z,16.65
2023-02-23T18:33:15.092Z,16.64
2023-02-23T18:35:43.985Z,17.11
2023-02-23T18:38:12.723Z,17.14
2023-02-23T18:40:39.854Z,17.91
2023-02-23T18:43:07.105Z,17.30
2023-02-23T18:45:34.583Z,17.32
2023-02-23T18:48:01.237Z,17.09
2023-02-23T18:50:28.218Z,15.79
2023-02-23T18:52:56.526Z,15.36
2023-02-23T18:55:23.906Z,14.84
2023-02-23T18:57:51.308Z,14.52
2023-02-23T19:00:19.503Z,14.64
2023-02-23T19:02:46.302Z,15.34
2023-02-23T19:05:15.928Z,15.90
2023-02-23T19:07:43.438Z,15.95
2023-02-23T19:10:13.145Z,15.79
2023-02-23T19:12:39.862Z,15.29
2023-02-23T19:15:07.810Z,15.55
2023-02-23T19:17:36.036Z,15.56
2023-02-23T19:20:04.050Z,15.37
2023-02-23T19:22:30.699Z,14.92
2023-02-23T19:24:57.376Z,14.25
2023-02-23T19:27:24.007Z,14.67
2023-02-23T19:29:50.673Z,14.83
2023-02-23T19:32:17.434Z,14.69
2023-02-23T19:34:44.675Z,13.91
2023-02-23T19:37:11.301Z,13.24
2023-02-23T19:39:38.243Z,13.38
2023-02-23T19:42:04.953Z,12.79
2023-02-23T19:44:31.587Z,12.94
2023-02-23T19:46:58.424Z,12.78
2023-02-23T19:49:25.348Z,12.79
2023-02-23T19:51:52.557Z,12.56
2023-02-23T19:54:19.979Z,12.60
2023-02-23T19:56:47.122Z,12.46
2023-02-23T19:59:15.418Z,12.09
2023-02-23T20:01:42.132Z,12.30
2023-02-23T20:04:09.025Z,12.39
2023-02-23T20:06:41.986Z,12.26
2023-02-23T20:09:08.761Z,11.85
2023-02-23T20:11:35.878Z,11.63
2023-02-23T20:14:04.155Z,11.44
2023-02-23T20:16:31.694Z,10.98
2023-02-23T20:18:58.687Z,10.10
2023-02-23T20:21:27.781Z,9.68
2023-02-23T20:23:55.873Z,9.60
2023-02-23T20:26:29.158Z,9.68
2023-02-23T20:28:57.817Z,8.61
2023-02-23T20:31:28.279Z,8.76
2023-02-23T20:33:57.579Z,9.06
2023-02-23T20:36:25.566Z,8.95
2023-02-23T20:38:53.248Z,8.93
2023-02-23T20:41:22.838Z,8.62
2023-02-23T20:43:49.773Z,9.01
2023-02-23T20:46:16.965Z,8.67
2023-02-23T20:48:43.927Z,8.27
2023-02-23T20:51:12.397Z,8.00
2023-02-23T20:53:40.264Z,7.94
2023-02-23T20:56:09.958Z,8.34
2023-02-23T20:58:38.969Z,8.28
2023-02-23T21:01:13.505Z,9.20
2023-02-23T21:03:40.215Z,8.73
2023-02-23T21:06:06.955Z,9.38
2023-02-23T21:08:33.547Z,9.95
2023-02-23T21:11:06.353Z,11.31
2023-02-23T21:13:33.552Z,10.83
2023-02-23T21:16:00.245Z,9.91
2023-02-23T21:18:28.111Z,9.25
2023-02-23T21:20:55.524Z,9.84
2023-02-23T21:23:26.374Z,9.74
2023-02-23T21:25:52.955Z,9.54
2023-02-23T21:28:20.433Z,9.67
2023-02-23T21:30:47.318Z,9.50
2023-02-23T21:33:14.561Z,9.75
2023-02-23T21:35:43.239Z,9.57
2023-02-23T21:38:09.829Z,10.80
2023-02-23T21:40:36.474Z,10.86
2023-02-23T21:43:03.093Z,11.44
2023-02-23T21:45:29.709Z,11.43
2023-02-23T21:47:56.362Z,15.02
2023-02-23T21:50:23.029Z,15.82
2023-02-23T21:52:49.661Z,15.42
2023-02-23T21:55:24.446Z,11.41
2023-02-23T21:57:51.878Z,11.71
2023-02-23T22:00:21.736Z,11.36
2023-02-23T22:02:51.451Z,11.86
2023-02-23T22:05:19.096Z,11.80
2023-02-23T22:07:51.199Z,11.54
2023-02-23T22:10:23.090Z,12.50
2023-02-23T22:12:50.774Z,13.69
2023-02-23T22:15:17.519Z,14.53
2023-02-23T22:17:44.187Z,15.50
2023-02-23T22:20:11.704Z,15.70
2023-02-23T22:22:38.406Z,18.98
2023-02-23T22:25:07.394Z,18.68
2023-02-23T22:27:34.057Z,18.56
2023-02-23T22:30:02.147Z,19.39
2023-02-23T22:32:30.734Z,19.78
2023-02-23T22:34:57.569Z,20.37
2023-02-23T22:37:24.183Z,20.02
2023-02-23T22:39:50.779Z,20.32
2023-02-23T22:42:17.394Z,20.24
2023-02-23T22:44:44.042Z,20.32
2023-02-23T22:47:10.763Z,19.90
2023-02-23T22:49:37.386Z,19.77
2023-02-23T22:52:04.056Z,19.87
2023-02-23T22:54:30.682Z,19.83
2023-02-23T22:56:57.318Z,19.87
2023-02-23T22:59:23.969Z,19.74
2023-02-23T23:01:50.706Z,19.33
2023-02-23T23:04:17.511Z,19.39
2023-02-23T23:06:44.179Z,19.88
2023-02-23T23:09:12.262Z,20.12
2023-02-23T23:11:39.577Z,19.41
2023-02-23T23:14:06.222Z,19.73
2023-02-23T23:16:35.247Z,20.16
2023-02-23T23:19:06.145Z,18.89
2023-02-23T23:21:34.550Z,18.65
2023-02-23T23:24:03.723Z,19.34
2023-02-23T23:26:30.378Z,19.43
2023-02-23T23:28:59.535Z,19.44
2023-02-23T23:31:32.336Z,19.32
2023-02-23T23:34:01.877Z,18.51
2023-02-23T23:36:40.890Z,18.81
2023-02-23T23:39:07.501Z,18.13
2023-02-23T23:41:34.146Z,17.80
2023-02-23T23:44:01.841Z,17.25
2023-02-23T23:46:31.721Z,16.49
2023-02-23T23:49:00.737Z,16.00
2023-02-23T23:51:32.969Z,16.00
2023-02-23T23:54:01.756Z,15.60
2023-02-23T23:56:29.454Z,15.43
2023-02-23T23:58:59.118Z,15.40
